Time;durP1;ratioP1;P1;durP2;ratioP2;P2;SDS_P1;SDS_P2;PMS_P1;PMS_P2;Temp;Humidity;BMP_temperature;BMP_pressure;BME280_temperature;BME280_humidity;BME280_pressure;Samples;Min_cycle;Max_cycle;Signal;HPM_P1;HPM_P2
2022/09/12 00:01:19;;;;;;;11.70;10.00;;;13.70;99.90;;;;;;5004545;28;20542;-69
2022/09/12 00:03:47;;;;;;;12.50;11.30;;;13.70;99.90;;;;;;5008224;28;20520;-69
2022/09/12 00:06:18;;;;;;;12.90;11.77;;;13.70;99.90;;;;;;5007436;28;20485;-69
2022/09/12 00:08:45;;;;;;;11.73;10.83;;;13.70;99.90;;;;;;5005840;28;20569;-69
2022/09/12 00:11:14;;;;;;;12.67;11.57;;;13.70;99.90;;;;;;4999799;28;21026;-69
2022/09/12 00:13:42;;;;;;;12.93;11.73;;;13.90;99.90;;;;;;5007247;28;21017;-69
2022/09/12 00:16:16;;;;;;;13.27;12.07;;;13.70;99.90;;;;;;5007303;28;20525;-69
2022/09/12 00:18:45;;;;;;;12.10;11.10;;;13.70;99.90;;;;;;5006992;28;20504;-69
2022/09/12 00:21:13;;;;;;;13.10;12.00;;;13.80;99.90;;;;;;5007357;28;20544;-69
2022/09/12 00:23:40;;;;;;;13.70;12.60;;;13.70;99.90;;;;;;5005081;28;20266;-69
2022/09/12 00:26:07;;;;;;;14.43;13.33;;;13.70;99.90;;;;;;5009092;28;20642;-69
2022/09/12 00:28:38;;;;;;;13.55;12.35;;;13.70;99.90;;;;;;5004558;28;20462;-69
2022/09/12 00:31:06;;;;;;;13.75;12.45;;;13.70;99.90;;;;;;5010367;28;20210;-69
2022/09/12 00:33:34;;;;;;;14.00;12.80;;;13.70;99.90;;;;;;5013157;28;20290;-69
2022/09/12 00:36:05;;;;;;;13.93;12.73;;;13.70;99.90;;;;;;5013338;28;20551;-69
2022/09/12 00:38:32;;;;;;;15.17;13.87;;;13.60;99.90;;;;;;5005657;28;20473;-69
2022/09/12 00:40:59;;;;;;;14.50;12.87;;;13.60;99.90;;;;;;5008087;28;20460;-69
2022/09/12 00:43:39;;;;;;;14.90;13.67;;;13.60;99.90;;;;;;5012361;28;20485;-69
2022/09/12 00:46:13;;;;;;;14.07;12.77;;;13.50;99.90;;;;;;5012019;28;20544;-69
2022/09/12 00:48:45;;;;;;;13.70;12.50;;;13.50;99.90;;;;;;5010147;28;20458;-69
2022/09/12 00:51:13;;;;;;;14.43;13.10;;;13.40;99.90;;;;;;5011375;28;20494;-69
2022/09/12 00:53:43;;;;;;;15.10;13.80;;;13.60;99.90;;;;;;5012133;28;20220;-69
2022/09/12 00:56:12;;;;;;;15.60;14.30;;;13.40;99.90;;;;;;5011925;28;20453;-69
2022/09/12 00:58:47;;;;;;;14.47;13.37;;;13.50;99.90;;;;;;5007393;28;20552;-69
2022/09/12 01:01:14;;;;;;;15.70;14.40;;;13.30;99.90;;;;;;5011521;28;20559;-69
2022/09/12 01:03:41;;;;;;;16.03;14.73;;;13.30;99.90;;;;;;5005140;28;20576;-69
2022/09/12 01:06:14;;;;;;;14.75;13.55;;;13.30;99.90;;;;;;5013354;28;20458;-69
2022/09/12 01:08:44;;;;;;;15.63;14.33;;;13.30;99.90;;;;;;5010025;28;20204;-69
2022/09/12 01:11:13;;;;;;;16.10;14.73;;;13.30;99.90;;;;;;5020724;28;20499;-70
2022/09/12 01:13:41;;;;;;;16.23;14.80;;;13.30;99.90;;;;;;5013208;28;20479;-69
2022/09/12 01:16:09;;;;;;;16.05;14.65;;;13.30;99.90;;;;;;5012344;28;20465;-69
2022/09/12 01:18:46;;;;;;;15.30;14.00;;;13.30;99.90;;;;;;5009885;28;20286;-69
2022/09/12 01:21:25;;;;;;;16.00;14.52;;;13.30;99.90;;;;;;5005540;28;20209;-69
2022/09/12 01:24:32;;;;;;;14.87;13.57;;;13.20;99.90;;;;;;5009567;28;20234;-70
2022/09/12 01:27:30;;;;;;;14.75;13.50;;;13.20;99.90;;;;;;5008669;28;20550;-69
2022/09/12 01:30:31;;;;;;;14.82;13.52;;;13.20;99.90;;;;;;4997396;28;20206;-69
2022/09/12 01:33:16;;;;;;;15.75;14.32;;;13.20;99.90;;;;;;5010451;28;20200;-69
2022/09/12 01:35:51;;;;;;;16.37;15.07;;;13.30;99.90;;;;;;5004476;28;20278;-69
2022/09/12 01:38:26;;;;;;;15.73;14.23;;;13.20;99.90;;;;;;5008481;28;20463;-69
2022/09/12 01:41:01;;;;;;;16.10;14.60;;;13.20;99.90;;;;;;5009685;28;20638;-69
2022/09/12 01:43:34;;;;;;;16.52;15.02;;;13.20;99.90;;;;;;5009960;28;20246;-70
2022/09/12 01:46:10;;;;;;;15.73;14.35;;;13.20;99.90;;;;;;5009420;28;20226;-69
2022/09/12 01:48:43;;;;;;;15.82;14.45;;;13.20;99.90;;;;;;5010919;28;20281;-70
2022/09/12 01:51:16;;;;;;;17.42;16.02;;;13.20;99.90;;;;;;5010828;28;20267;-69
2022/09/12 01:53:48;;;;;;;15.03;13.80;;;13.10;99.90;;;;;;5006538;28;20756;-70
2022/09/12 01:56:21;;;;;;;15.35;14.05;;;13.10;99.90;;;;;;5011643;28;20493;-69
2022/09/12 01:58:52;;;;;;;15.25;13.95;;;13.10;99.90;;;;;;5009312;28;20249;-70
2022/09/12 02:01:26;;;;;;;16.77;15.27;;;13.10;99.90;;;;;;5009069;28;20282;-70
2022/09/12 02:04:01;;;;;;;18.05;16.35;;;13.10;99.90;;;;;;5011570;28;20310;-70
2022/09/12 02:06:33;;;;;;;17.35;15.80;;;13.10;99.90;;;;;;5008338;28;20284;-70
2022/09/12 02:09:04;;;;;;;16.92;15.52;;;13.00;99.90;;;;;;5010869;28;20287;-70
2022/09/12 02:11:34;;;;;;;18.15;16.48;;;13.00;99.90;;;;;;5010490;28;20238;-70
2022/09/12 02:14:04;;;;;;;18.13;16.42;;;13.00;99.90;;;;;;5012160;28;20305;-70
2022/09/12 02:16:36;;;;;;;16.63;15.23;;;12.90;99.90;;;;;;5009736;28;20203;-70
2022/09/12 02:19:09;;;;;;;17.80;16.30;;;12.90;99.90;;;;;;5009855;28;20194;-70
2022/09/12 02:21:39;;;;;;;17.60;16.10;;;12.80;99.90;;;;;;5009118;28;20194;-70
2022/09/12 02:24:10;;;;;;;18.67;16.90;;;12.80;99.90;;;;;;5008988;28;20577;-70
2022/09/12 02:26:43;;;;;;;18.05;16.45;;;12.80;99.90;;;;;;5010662;28;20840;-69
2022/09/12 02:29:11;;;;;;;17.60;16.00;;;12.80;99.90;;;;;;5010203;28;20269;-70
2022/09/12 02:31:45;;;;;;;19.02;17.42;;;12.80;99.90;;;;;;5012557;28;20701;-70
2022/09/12 02:34:24;;;;;;;19.80;18.00;;;12.70;99.90;;;;;;5010422;28;20270;-70
2022/09/12 02:37:01;;;;;;;19.40;17.70;;;12.70;99.90;;;;;;5008814;28;20755;-69
2022/09/12 02:39:28;;;;;;;19.55;17.85;;;12.70;99.90;;;;;;5009277;28;20206;-70
2022/09/12 02:41:58;;;;;;;19.60;17.90;;;12.70;99.90;;;;;;5010471;28;20194;-70
2022/09/12 02:44:28;;;;;;;20.17;18.40;;;12.70;99.90;;;;;;5010412;28;20226;-70
2022/09/12 02:47:00;;;;;;;19.25;17.55;;;12.70;99.90;;;;;;5010777;28;20661;-70
2022/09/12 02:49:27;;;;;;;17.90;16.30;;;12.70;99.90;;;;;;5010158;28;20202;-70
2022/09/12 02:51:55;;;;;;;17.52;15.95;;;12.70;99.90;;;;;;5008534;28;20731;-70
2022/09/12 02:54:22;;;;;;;16.15;14.85;;;12.70;99.90;;;;;;5006976;28;20218;-70
2022/09/12 02:56:49;;;;;;;16.07;14.63;;;12.60;99.90;;;;;;5008869;28;20207;-70
2022/09/12 02:59:19;;;;;;;16.35;14.85;;;12.60;99.90;;;;;;5009475;28;20495;-70
2022/09/12 03:02:03;;;;;;;16.20;14.65;;;12.60;99.90;;;;;;5009949;28;20550;-71
2022/09/12 03:04:48;;;;;;;16.50;15.02;;;12.60;99.90;;;;;;5010280;28;22095;-70
2022/09/12 03:07:26;;;;;;;15.85;14.50;;;12.50;99.90;;;;;;5008476;28;20205;-70
2022/09/12 03:10:02;;;;;;;17.52;15.98;;;12.50;99.90;;;;;;5008480;28;20237;-70
2022/09/12 03:12:43;;;;;;;15.45;14.10;;;12.50;99.90;;;;;;5008702;28;20230;-70
2022/09/12 03:15:22;;;;;;;17.05;15.52;;;12.50;99.90;;;;;;5009944;28;20198;-70
2022/09/12 03:18:04;;;;;;;16.27;14.98;;;12.50;99.90;;;;;;5006863;28;20649;-70
2022/09/12 03:20:43;;;;;;;16.42;15.00;;;12.50;99.90;;;;;;5007139;28;20296;-70
2022/09/12 03:23:19;;;;;;;16.77;15.40;;;12.40;99.90;;;;;;5009780;28;20927;-70
2022/09/12 03:25:52;;;;;;;15.93;14.73;;;12.40;99.90;;;;;;5008178;28;20226;-70
2022/09/12 03:28:22;;;;;;;15.45;14.15;;;12.40;99.90;;;;;;5005898;28;20208;-70
2022/09/12 03:30:53;;;;;;;15.43;14.02;;;12.40;99.90;;;;;;5006738;28;20194;-70
2022/09/12 03:33:23;;;;;;;16.20;14.80;;;12.30;99.90;;;;;;5005945;28;20218;-70
2022/09/12 03:35:51;;;;;;;16.20;14.70;;;12.30;99.90;;;;;;5003968;28;20543;-70
2022/09/12 03:38:19;;;;;;;14.93;13.65;;;12.20;99.90;;;;;;5000537;28;20202;-70
2022/09/12 03:40:46;;;;;;;15.07;13.77;;;12.20;99.90;;;;;;5007930;28;20229;-70
2022/09/12 03:43:13;;;;;;;16.20;14.70;;;12.10;99.90;;;;;;5008148;28;20840;-70
2022/09/12 03:45:40;;;;;;;17.15;15.65;;;12.10;99.90;;;;;;5007190;28;20269;-70
2022/09/12 03:48:08;;;;;;;16.50;15.10;;;12.10;99.90;;;;;;5007973;28;20285;-71
2022/09/12 03:50:36;;;;;;;16.30;14.90;;;12.10;99.90;;;;;;5006505;28;20309;-71
2022/09/12 03:53:04;;;;;;;17.02;15.30;;;12.10;99.90;;;;;;5008099;28;20569;-71
2022/09/12 03:55:31;;;;;;;15.85;14.50;;;12.10;99.90;;;;;;5002275;28;20202;-71
2022/09/12 03:57:58;;;;;;;17.50;16.00;;;12.10;99.90;;;;;;5007637;28;20305;-70
2022/09/12 04:00:26;;;;;;;19.30;17.35;;;12.10;99.90;;;;;;5006875;28;20654;-70
2022/09/12 04:02:56;;;;;;;17.65;15.80;;;12.10;99.90;;;;;;5007700;28;20246;-69
2022/09/12 04:05:24;;;;;;;18.88;17.13;;;12.10;99.90;;;;;;5007640;28;20221;-70
2022/09/12 04:07:52;;;;;;;18.88;17.13;;;12.10;99.90;;;;;;5006786;28;20202;-70
2022/09/12 04:10:20;;;;;;;19.60;17.80;;;12.10;99.90;;;;;;5002039;28;20233;-71
2022/09/12 04:12:46;;;;;;;19.00;17.23;;;12.00;99.90;;;;;;5005836;28;20218;-70
2022/09/12 04:15:14;;;;;;;20.42;18.50;;;12.00;99.90;;;;;;5005916;28;20325;-71
2022/09/12 04:17:41;;;;;;;20.45;18.45;;;12.00;99.90;;;;;;5007906;28;20277;-70
2022/09/12 04:20:08;;;;;;;20.63;18.50;;;12.10;99.90;;;;;;4999409;28;20326;-72
2022/09/12 04:22:35;;;;;;;17.63;16.13;;;12.10;99.90;;;;;;5001999;28;20209;-70
2022/09/12 04:25:04;;;;;;;19.48;17.55;;;12.00;99.90;;;;;;4998596;28;20645;-70
2022/09/12 04:27:31;;;;;;;19.65;17.65;;;12.10;99.90;;;;;;5010334;28;20201;-70
2022/09/12 04:30:00;;;;;;;19.73;17.92;;;12.10;99.90;;;;;;5003017;28;20209;-70
2022/09/12 04:32:28;;;;;;;19.63;17.83;;;12.10;99.90;;;;;;5010215;28;20234;-70
2022/09/12 04:34:55;;;;;;;21.45;19.50;;;12.00;99.90;;;;;;5010431;28;20745;-70
2022/09/12 04:37:23;;;;;;;22.40;20.13;;;12.00;99.90;;;;;;5009124;28;20195;-70
2022/09/12 04:39:50;;;;;;;19.90;18.20;;;12.00;99.90;;;;;;5009199;28;20198;-70
2022/09/12 04:42:18;;;;;;;18.63;16.92;;;12.00;99.90;;;;;;5007516;28;20248;-70
2022/09/12 04:44:45;;;;;;;20.75;18.75;;;12.10;99.90;;;;;;5005827;28;20238;-70
2022/09/12 04:47:12;;;;;;;19.38;17.67;;;12.10;99.90;;;;;;4995697;28;20209;-71
2022/09/12 04:49:40;;;;;;;19.65;17.95;;;12.00;99.90;;;;;;5009065;28;20199;-69
2022/09/12 04:52:06;;;;;;;18.88;17.17;;;12.00;99.90;;;;;;5006037;28;20297;-68
2022/09/12 04:54:34;;;;;;;20.30;18.25;;;12.00;99.90;;;;;;5007326;28;20228;-68
2022/09/12 04:57:01;;;;;;;19.83;17.83;;;12.00;99.90;;;;;;5006621;28;20199;-67
2022/09/12 04:59:29;;;;;;;19.75;17.98;;;12.00;99.90;;;;;;5004236;28;20226;-68
2022/09/12 05:01:56;;;;;;;18.98;17.17;;;12.10;99.90;;;;;;5007877;28;20202;-68
2022/09/12 05:04:23;;;;;;;19.70;17.73;;;12.00;99.90;;;;;;5009923;28;20678;-67
2022/09/12 05:06:50;;;;;;;20.50;18.60;;;12.00;99.90;;;;;;5007709;28;20248;-71
2022/09/12 05:09:17;;;;;;;21.95;19.85;;;12.00;99.90;;;;;;5006080;28;20213;-72
2022/09/12 05:11:45;;;;;;;20.00;18.20;;;12.10;99.90;;;;;;5006422;28;20202;-75
2022/09/12 05:14:12;;;;;;;19.65;17.85;;;12.00;99.90;;;;;;5008027;28;20218;-71
2022/09/12 05:16:42;;;;;;;19.27;17.67;;;12.00;99.90;;;;;;4999719;28;20206;-71
2022/09/12 05:19:11;;;;;;;20.50;18.70;;;12.00;99.90;;;;;;5014311;28;20752;-70
2022/09/12 05:21:38;;;;;;;19.73;17.73;;;12.00;99.90;;;;;;5012760;28;20194;-71
2022/09/12 05:24:05;;;;;;;20.55;18.70;;;12.10;99.90;;;;;;5011914;28;20309;-71
2022/09/12 05:26:32;;;;;;;20.05;18.20;;;12.00;99.90;;;;;;5012762;28;20496;-70
2022/09/12 05:28:59;;;;;;;18.85;17.17;;;11.90;99.90;;;;;;5012287;28;20202;-71
2022/09/12 05:31:27;;;;;;;22.05;19.95;;;12.00;99.90;;;;;;5013542;28;20290;-71
2022/09/12 05:33:56;;;;;;;20.50;18.58;;;12.00;99.90;;;;;;5012639;28;20221;-71
2022/09/12 05:36:25;;;;;;;21.15;19.23;;;12.00;99.90;;;;;;5012995;28;20755;-71
2022/09/12 05:38:53;;;;;;;22.00;19.42;;;12.00;99.90;;;;;;5012704;28;20194;-71
2022/09/12 05:41:23;;;;;;;20.25;18.35;;;12.00;99.90;;;;;;5005644;28;20759;-72
2022/09/12 05:43:53;;;;;;;22.08;19.80;;;12.00;99.90;;;;;;4998268;28;20210;-71
2022/09/12 05:46:21;;;;;;;21.35;19.38;;;12.00;99.90;;;;;;5004364;28;20284;-72
2022/09/12 05:48:49;;;;;;;21.88;19.75;;;12.00;99.90;;;;;;5009637;28;20205;-72
2022/09/12 05:51:19;;;;;;;20.30;18.40;;;12.00;99.90;;;;;;5010308;28;20198;-71
2022/09/12 05:53:48;;;;;;;21.33;19.33;;;12.10;99.90;;;;;;5004783;28;20273;-71
2022/09/12 05:56:17;;;;;;;20.95;18.95;;;12.10;99.90;;;;;;5008725;28;20209;-72
2022/09/12 05:58:45;;;;;;;20.60;18.70;;;12.10;99.90;;;;;;5010929;28;20217;-71
2022/09/12 06:01:14;;;;;;;20.00;18.15;;;12.10;99.90;;;;;;5010215;28;20341;-71
2022/09/12 06:03:43;;;;;;;19.65;17.65;;;12.20;99.90;;;;;;5010199;28;20276;-71
2022/09/12 06:06:12;;;;;;;19.92;18.15;;;12.20;99.90;;;;;;5005417;28;20234;-71
2022/09/12 06:08:42;;;;;;;19.00;16.40;;;12.30;99.90;;;;;;5008979;28;20618;-71
2022/09/12 06:11:11;;;;;;;17.05;15.60;;;12.40;99.90;;;;;;5007220;28;20195;-71
2022/09/12 06:13:39;;;;;;;15.75;14.30;;;12.50;99.90;;;;;;4995094;28;20219;-71
2022/09/12 06:16:09;;;;;;;15.70;14.40;;;12.60;99.90;;;;;;5002175;28;20218;-71
2022/09/12 06:18:37;;;;;;;17.33;15.57;;;12.60;99.90;;;;;;5010102;28;20576;-71
2022/09/12 06:21:05;;;;;;;16.85;15.45;;;12.60;99.90;;;;;;5011211;28;20194;-71
2022/09/12 06:23:32;;;;;;;15.05;13.63;;;12.80;99.90;;;;;;5009469;28;20309;-71
2022/09/12 06:26:01;;;;;;;15.20;13.80;;;13.00;99.90;;;;;;5007233;28;20233;-70
2022/09/12 06:28:28;;;;;;;13.60;12.50;;;13.20;99.90;;;;;;5006365;28;20547;-70
2022/09/12 06:31:02;;;;;;;13.83;12.73;;;13.30;99.90;;;;;;5005895;28;20525;-70
2022/09/12 06:33:29;;;;;;;14.90;13.60;;;13.60;99.90;;;;;;5009377;28;20477;-71
2022/09/12 06:35:56;;;;;;;14.50;13.20;;;13.80;99.90;;;;;;5009083;28;21610;-70
2022/09/12 06:38:23;;;;;;;12.83;11.83;;;14.00;99.90;;;;;;5009939;28;20551;-71
2022/09/12 06:40:50;;;;;;;11.60;10.67;;;14.20;99.90;;;;;;5008633;28;20511;-71
2022/09/12 06:43:18;;;;;;;13.03;12.03;;;14.40;99.90;;;;;;5009334;28;20534;-72
2022/09/12 06:45:49;;;;;;;11.73;10.80;;;14.70;99.90;;;;;;5009598;28;20508;-71
2022/09/12 06:48:16;;;;;;;13.10;11.00;;;14.80;99.90;;;;;;5012538;28;20511;-70
2022/09/12 06:50:44;;;;;;;12.17;11.17;;;15.00;99.90;;;;;;5008628;28;20460;-71
2022/09/12 06:53:10;;;;;;;11.60;10.60;;;15.30;99.90;;;;;;5010188;28;20560;-71
2022/09/12 06:55:37;;;;;;;11.90;10.90;;;15.20;99.90;;;;;;5005245;28;20968;-71
2022/09/12 06:58:05;;;;;;;11.30;10.40;;;15.30;99.90;;;;;;5004320;28;20543;-71
2022/09/12 07:00:34;;;;;;;11.43;10.53;;;15.50;99.90;;;;;;5006779;28;20519;-71
2022/09/12 07:03:00;;;;;;;11.53;10.53;;;15.80;99.90;;;;;;5008761;28;20480;-71
2022/09/12 07:05:28;;;;;;;10.77;9.73;;;15.90;99.90;;;;;;5008607;28;21021;-71
2022/09/12 07:07:54;;;;;;;11.70;10.70;;;16.00;99.90;;;;;;5007139;28;20631;-71
2022/09/12 07:10:21;;;;;;;11.77;10.77;;;16.20;99.90;;;;;;5007733;28;20453;-71
2022/09/12 07:12:48;;;;;;;11.77;10.80;;;16.30;99.90;;;;;;4992188;28;20830;-71
2022/09/12 07:15:16;;;;;;;11.70;10.77;;;16.50;99.90;;;;;;5003897;28;20449;-71
2022/09/12 07:17:45;;;;;;;10.60;9.80;;;16.60;99.90;;;;;;5003069;28;20523;-71
2022/09/12 07:20:12;;;;;;;10.80;9.90;;;16.80;99.90;;;;;;5003892;28;20987;-71
2022/09/12 07:22:40;;;;;;;10.23;9.50;;;17.10;99.90;;;;;;5009816;28;20516;-71
2022/09/12 07:25:07;;;;;;;9.37;8.77;;;17.40;99.90;;;;;;5010298;28;20461;-71
2022/09/12 07:27:36;;;;;;;9.30;8.57;;;17.80;99.90;;;;;;5007596;28;20496;-72
2022/09/12 07:30:05;;;;;;;9.87;9.07;;;18.00;99.90;;;;;;5007983;28;20487;-71
2022/09/12 07:32:32;;;;;;;8.80;8.20;;;18.30;99.90;;;;;;5003166;28;20477;-72
2022/09/12 07:35:00;;;;;;;10.13;9.37;;;18.50;99.90;;;;;;5008131;28;21067;-72
2022/09/12 07:37:31;;;;;;;10.40;9.70;;;18.70;99.90;;;;;;5002221;28;20457;-71
2022/09/12 07:39:58;;;;;;;10.17;9.40;;;18.80;99.90;;;;;;5006908;28;20536;-71
2022/09/12 07:42:25;;;;;;;9.87;9.13;;;18.90;99.90;;;;;;5005404;28;20510;-71
2022/09/12 07:44:52;;;;;;;10.70;9.77;;;18.80;99.90;;;;;;4999283;28;20527;-71
2022/09/12 07:47:19;;;;;;;10.07;9.17;;;18.70;99.90;;;;;;5004823;28;20913;-71
2022/09/12 07:49:46;;;;;;;10.20;9.40;;;18.80;99.90;;;;;;5007215;28;20458;-71
2022/09/12 07:52:14;;;;;;;8.43;7.63;;;19.10;99.90;;;;;;5005038;28;21066;-71
2022/09/12 07:54:41;;;;;;;10.47;9.67;;;19.30;99.90;;;;;;5006567;28;20468;-71
2022/09/12 07:57:09;;;;;;;9.67;8.97;;;19.50;99.90;;;;;;5003515;28;20497;-71
2022/09/12 07:59:41;;;;;;;8.43;7.83;;;19.80;99.90;;;;;;5002395;28;20532;-71
2022/09/12 08:02:12;;;;;;;8.60;8.00;;;19.90;99.90;;;;;;4999929;28;20488;-71
2022/09/12 08:04:40;;;;;;;9.77;9.07;;;19.80;99.90;;;;;;4997283;28;20471;-72
2022/09/12 08:07:08;;;;;;;9.90;9.20;;;19.80;99.90;;;;;;5003717;28;20578;-71
2022/09/12 08:09:36;;;;;;;8.90;8.20;;;19.80;99.90;;;;;;5008742;28;20453;-71
2022/09/12 08:12:04;;;;;;;9.53;8.77;;;19.70;99.90;;;;;;5006108;28;20504;-71
2022/09/12 08:14:31;;;;;;;9.23;8.63;;;19.70;99.90;;;;;;5007943;28;20486;-71
2022/09/12 08:16:58;;;;;;;8.40;7.80;;;20.00;99.90;;;;;;5007268;28;20987;-71
2022/09/12 08:19:25;;;;;;;7.90;7.30;;;20.50;99.90;;;;;;5005478;28;20449;-69
2022/09/12 08:21:52;;;;;;;8.60;7.90;;;21.00;99.90;;;;;;5006395;28;20535;-71
2022/09/12 08:24:19;;;;;;;7.47;6.97;;;21.30;99.90;;;;;;5009982;28;20465;-72
2022/09/12 08:26:47;;;;;;;7.37;6.87;;;21.30;99.90;;;;;;5006642;28;20484;-71
2022/09/12 08:29:14;;;;;;;7.50;7.00;;;21.30;99.90;;;;;;5008845;28;20507;-71
2022/09/12 08:31:41;;;;;;;7.00;6.50;;;21.40;99.90;;;;;;5006343;28;20547;-71
2022/09/12 08:34:09;;;;;;;6.77;6.30;;;21.60;99.90;;;;;;5002450;28;20457;-71
2022/09/12 08:36:36;;;;;;;6.50;6.10;;;22.00;99.90;;;;;;5005509;28;20825;-71
2022/09/12 08:39:05;;;;;;;6.60;6.10;;;22.30;99.90;;;;;;5009900;28;20445;-71
2022/09/12 08:41:35;;;;;;;7.23;6.53;;;22.40;99.90;;;;;;5006970;28;20489;-71
2022/09/12 08:44:35;;;;;;;6.50;6.10;;;22.50;99.90;;;;;;5009541;28;20966;-72
2022/09/12 08:47:15;;;;;;;5.80;5.40;;;22.80;99.90;;;;;;4974510;28;20487;-72
2022/09/12 08:49:53;;;;;;;5.90;5.60;;;23.30;99.90;;;;;;5003788;28;20960;-72
2022/09/12 08:52:27;;;;;;;6.40;5.80;;;23.50;99.90;;;;;;5010971;28;20542;-71
2022/09/12 08:54:55;;;;;;;5.80;5.43;;;23.40;99.90;;;;;;5011107;28;20475;-72
2022/09/12 08:57:23;;;;;;;5.50;5.10;;;23.60;99.90;;;;;;5013265;28;20456;-72
2022/09/12 08:59:50;;;;;;;5.07;4.70;;;23.90;99.90;;;;;;5003288;28;20511;-72
2022/09/12 09:02:35;;;;;;;4.63;4.33;;;24.50;99.90;;;;;;5007797;28;20576;-71
2022/09/12 09:05:13;;;;;;;5.70;5.30;;;24.90;99.90;;;;;;5002378;28;20449;-72
2022/09/12 09:08:14;;;;;;;5.03;4.63;;;25.20;99.90;;;;;;5008964;28;20488;-71
2022/09/12 09:10:49;;;;;;;5.00;4.70;;;25.20;99.90;;;;;;5007602;28;20453;-71
2022/09/12 09:16:21;;;;;;;4.47;4.10;;;25.60;99.90;;;;;;4980995;28;20464;-71
2022/09/12 09:18:53;;;;;;;4.00;3.70;;;25.90;99.90;;;;;;5006413;28;20461;-71
2022/09/12 09:21:25;;;;;;;4.47;4.13;;;26.30;99.90;;;;;;5009325;28;20587;-71
2022/09/12 09:24:00;;;;;;;4.77;4.47;;;26.60;99.90;;;;;;5006812;28;20966;-71
2022/09/12 09:26:34;;;;;;;5.00;4.60;;;26.90;99.90;;;;;;5009712;28;20488;-71
2022/09/12 09:29:05;;;;;;;4.17;3.90;;;26.90;99.90;;;;;;5010723;28;20460;-72
2022/09/12 09:31:37;;;;;;;4.63;4.33;;;26.90;99.90;;;;;;5011009;28;20468;-72
2022/09/12 09:34:13;;;;;;;3.93;3.63;;;27.00;98.80;;;;;;5011028;28;20990;-71
2022/09/12 09:36:48;;;;;;;3.70;3.50;;;26.90;99.00;;;;;;5009206;28;21059;-71
2022/09/12 09:39:25;;;;;;;3.93;3.70;;;26.70;98.00;;;;;;5004737;28;20553;-72
2022/09/12 09:42:01;;;;;;;3.77;3.47;;;26.60;97.30;;;;;;5003440;28;20473;-71
2022/09/12 09:44:29;;;;;;;4.33;3.93;;;26.70;97.60;;;;;;5009891;28;20471;-71
2022/09/12 09:46:59;;;;;;;4.67;3.80;;;27.00;96.70;;;;;;5002639;28;20476;-71
2022/09/12 09:49:31;;;;;;;3.80;3.60;;;27.00;96.90;;;;;;5008536;28;20464;-71
2022/09/12 09:52:00;;;;;;;3.70;3.50;;;26.90;96.80;;;;;;5009034;28;20504;-71
2022/09/12 09:54:34;;;;;;;4.20;3.90;;;27.20;96.20;;;;;;5013220;28;20457;-72
2022/09/12 09:57:03;;;;;;;5.50;4.03;;;27.40;95.70;;;;;;5010260;28;20536;-71
2022/09/12 09:59:32;;;;;;;3.40;3.10;;;27.70;95.10;;;;;;5004829;28;20457;-71
2022/09/12 10:02:02;;;;;;;3.50;3.30;;;28.00;94.70;;;;;;5005352;28;20495;-71
2022/09/12 10:04:33;;;;;;;3.50;3.30;;;28.20;94.00;;;;;;5008353;28;20461;-71
2022/09/12 10:07:03;;;;;;;3.30;3.00;;;28.30;93.50;;;;;;5004804;28;21058;-71
2022/09/12 10:09:32;;;;;;;3.50;3.20;;;28.50;92.60;;;;;;5003425;28;20526;-71
2022/09/12 10:12:01;;;;;;;2.83;2.60;;;28.30;91.10;;;;;;5003898;28;20482;-71
2022/09/12 10:14:38;;;;;;;2.87;2.63;;;27.70;92.00;;;;;;5008582;28;20457;-71
2022/09/12 10:17:28;;;;;;;3.63;2.63;;;28.00;91.30;;;;;;5009443;28;20523;-71
2022/09/12 10:19:57;;;;;;;2.60;2.50;;;28.40;87.00;;;;;;5010910;28;20457;-71
2022/09/12 10:22:28;;;;;;;3.43;3.23;;;28.30;88.70;;;;;;5007116;28;20564;-71
2022/09/12 10:24:58;;;;;;;3.10;2.90;;;27.80;90.00;;;;;;5008308;28;20558;-72
2022/09/12 10:27:28;;;;;;;2.90;2.70;;;27.60;90.10;;;;;;5027782;28;20549;-72
2022/09/12 10:30:02;;;;;;;3.47;3.17;;;27.70;90.00;;;;;;5021674;28;20467;-72
2022/09/12 10:32:33;;;;;;;2.80;2.60;;;27.80;89.80;;;;;;5003543;28;20509;-72
2022/09/12 10:35:04;;;;;;;2.47;2.37;;;28.10;90.50;;;;;;5009142;28;20460;-72
2022/09/12 10:37:34;;;;;;;2.90;2.70;;;28.60;90.20;;;;;;5008932;28;20453;-71
2022/09/12 10:40:03;;;;;;;2.77;2.67;;;28.90;85.40;;;;;;5010051;28;20488;-72
2022/09/12 10:42:46;;;;;;;2.67;2.50;;;28.50;84.10;;;;;;5005040;28;22019;-72
2022/09/12 10:45:27;;;;;;;3.37;2.53;;;28.60;83.90;;;;;;5000428;28;20504;-72
2022/09/12 10:47:57;;;;;;;3.03;2.83;;;28.60;83.50;;;;;;5008729;28;20497;-72
2022/09/12 10:50:29;;;;;;;2.70;2.50;;;28.40;86.00;;;;;;5010540;28;20579;-72
2022/09/12 10:53:14;;;;;;;2.77;2.57;;;28.30;87.00;;;;;;5006559;28;20469;-71
2022/09/12 10:55:50;;;;;;;2.83;2.63;;;28.30;84.90;;;;;;5006032;28;20461;-72
2022/09/12 10:59:08;;;;;;;2.93;2.53;;;28.30;84.40;;;;;;4998326;28;20461;-71
2022/09/12 11:01:41;;;;;;;2.77;2.57;;;28.50;82.60;;;;;;4942300;29;20482;-71
2022/09/12 11:04:41;;;;;;;3.00;2.80;;;28.70;82.30;;;;;;4947282;29;20471;-72
2022/09/12 11:07:25;;;;;;;2.90;2.70;;;28.70;82.50;;;;;;4989185;28;20512;-71
2022/09/12 11:09:59;;;;;;;2.73;2.53;;;28.90;82.30;;;;;;5009041;28;20488;-72
2022/09/12 11:12:32;;;;;;;3.13;2.93;;;29.30;80.00;;;;;;5005765;28;20556;-71
2022/09/12 11:15:11;;;;;;;2.90;2.70;;;29.30;78.60;;;;;;5000709;28;20551;-72
2022/09/12 11:17:50;;;;;;;2.50;2.30;;;29.10;78.10;;;;;;5006800;28;20471;-71
2022/09/12 11:20:43;;;;;;;2.40;2.20;;;29.30;80.30;;;;;;5006117;28;20489;-72
2022/09/12 11:23:33;;;;;;;2.37;2.27;;;29.90;78.80;;;;;;5008559;28;20536;-71
2022/09/12 11:26:09;;;;;;;2.60;2.00;;;30.50;76.60;;;;;;5009762;28;20800;-72
2022/09/12 11:28:47;;;;;;;2.53;2.33;;;30.80;73.00;;;;;;5008074;28;21046;-72
2022/09/12 11:31:42;;;;;;;2.33;2.13;;;30.50;74.30;;;;;;5001361;28;20468;-72
2022/09/12 11:34:10;;;;;;;2.37;2.23;;;30.10;74.80;;;;;;5015532;28;20515;-71
2022/09/12 11:36:53;;;;;;;2.67;2.47;;;29.90;76.40;;;;;;4999744;28;20556;-71
2022/09/12 11:39:25;;;;;;;2.17;1.97;;;29.60;73.20;;;;;;5002260;28;20480;-71
2022/09/12 11:41:57;;;;;;;2.60;2.40;;;29.50;75.10;;;;;;5007749;28;20813;-71
2022/09/12 11:44:28;;;;;;;2.00;1.80;;;29.70;75.10;;;;;;5001143;28;20487;-71
2022/09/12 11:46:55;;;;;;;2.13;2.00;;;30.00;74.20;;;;;;5006511;28;20480;-71
2022/09/12 11:49:33;;;;;;;2.67;2.47;;;30.20;72.10;;;;;;5008911;28;20453;-70
2022/09/12 11:52:04;;;;;;;2.27;2.03;;;29.80;68.70;;;;;;5008488;28;20487;-71
2022/09/12 11:54:37;;;;;;;2.03;1.90;;;29.90;69.10;;;;;;5003090;28;20453;-69
2022/09/12 11:57:13;;;;;;;1.90;1.80;;;30.50;69.40;;;;;;5010725;28;20488;-66
2022/09/12 11:59:45;;;;;;;2.57;2.37;;;30.70;69.70;;;;;;5006898;28;20484;-67
2022/09/12 12:02:19;;;;;;;2.10;1.90;;;30.90;68.70;;;;;;5005675;28;20480;-68
2022/09/12 12:04:59;;;;;;;2.60;2.40;;;30.80;70.90;;;;;;5000751;28;20548;-66
2022/09/12 12:07:26;;;;;;;2.30;2.20;;;31.00;68.50;;;;;;5006859;28;20488;-67
2022/09/12 12:09:54;;;;;;;2.17;2.07;;;30.70;68.90;;;;;;5005026;28;20492;-67
2022/09/12 12:12:26;;;;;;;2.40;2.20;;;30.80;68.70;;;;;;5003947;28;20495;-67
2022/09/12 12:14:56;;;;;;;2.43;2.17;;;30.10;69.20;;;;;;5006620;28;20537;-66
2022/09/12 12:17:25;;;;;;;2.33;2.13;;;29.80;66.90;;;;;;5003456;28;20457;-68
2022/09/12 12:20:02;;;;;;;2.57;2.07;;;29.10;66.80;;;;;;5008922;28;20893;-70
2022/09/12 12:22:30;;;;;;;2.27;2.17;;;29.10;69.00;;;;;;4996948;28;20473;-71
2022/09/12 12:25:26;;;;;;;2.50;2.37;;;29.20;70.00;;;;;;5003207;28;20987;-70
2022/09/12 12:27:57;;;;;;;2.13;2.03;;;29.60;69.70;;;;;;5012750;28;20499;-71
2022/09/12 12:30:59;;;;;;;2.00;1.70;;;29.40;68.20;;;;;;5010163;28;20544;-72
2022/09/12 12:34:06;;;;;;;2.10;1.90;;;29.60;67.60;;;;;;5010974;28;20514;-71
2022/09/12 12:36:39;;;;;;;2.07;1.87;;;29.30;68.50;;;;;;5001718;28;20480;-71
2022/09/12 12:39:46;;;;;;;2.30;2.20;;;29.50;67.80;;;;;;5000896;28;20468;-71
2022/09/12 12:43:06;;;;;;;2.23;2.13;;;29.30;67.70;;;;;;4999626;28;20472;-71
2022/09/12 12:46:10;;;;;;;1.93;1.83;;;29.20;67.40;;;;;;5011907;28;20453;-71
2022/09/12 12:49:10;;;;;;;2.13;1.93;;;29.50;67.50;;;;;;5012616;28;20492;-71
2022/09/12 12:51:43;;;;;;;2.67;1.60;;;29.80;65.60;;;;;;5001718;28;20508;-71
2022/09/12 12:54:33;;;;;;;1.97;1.70;;;30.00;65.20;;;;;;5010108;28;20816;-70
2022/09/12 12:57:06;;;;;;;2.90;1.70;;;30.00;63.40;;;;;;5008933;28;20453;-71
2022/09/12 12:59:33;;;;;;;1.90;1.80;;;30.40;63.70;;;;;;5007747;28;20453;-70
2022/09/12 13:02:04;;;;;;;1.70;1.60;;;31.00;61.00;;;;;;4999275;28;21080;-71
2022/09/12 13:04:32;;;;;;;1.50;1.40;;;31.20;59.40;;;;;;5010095;28;20449;-70